Time;durP1;ratioP1;P1;durP2;ratioP2;P2;SDS_P1;SDS_P2;PMS_P1;PMS_P2;Temp;Humidity;BMP_temperature;BMP_pressure;BME280_temperature;BME280_humidity;BME280_pressure;Samples;Min_cycle;Max_cycle;Signal;HPM_P1;HPM_P2
2022/09/15 00:02:06;;;;;;;15.40;10.27;;;;;;;18.41;69.71;98777.75;10390708;28;20057;-80
2022/09/15 00:07:08;;;;;;;11.98;8.82;;;;;;;18.45;69.45;98776.41;10390856;28;20099;-79
2022/09/15 00:12:10;;;;;;;16.20;12.35;;;;;;;18.42;68.79;98779.41;10388042;28;20054;-79
2022/09/15 00:17:11;;;;;;;14.27;11.63;;;;;;;18.36;68.90;98783.53;10388758;28;20697;-79
2022/09/15 00:22:13;;;;;;;23.85;16.27;;;;;;;18.25;68.81;98789.19;10391233;28;20064;-79
2022/09/15 00:27:15;;;;;;;26.30;17.67;;;;;;;18.13;68.83;98779.09;10394092;28;20053;-79
2022/09/15 00:32:17;;;;;;;31.25;19.48;;;;;;;18.05;69.37;98781.75;10393604;28;20054;-79
2022/09/15 00:37:19;;;;;;;20.35;14.80;;;;;;;17.84;69.43;98776.94;10392202;28;20815;-81
2022/09/15 00:42:21;;;;;;;38.60;21.98;;;;;;;17.79;69.34;98780.06;10393541;28;20080;-81
2022/09/15 00:47:28;;;;;;;51.90;23.88;;;;;;;17.69;69.48;98786.50;10393828;28;20496;-82
2022/09/15 00:52:50;;;;;;;39.80;20.50;;;;;;;17.44;69.78;98785.69;10396816;28;20060;-81
2022/09/15 00:58:00;;;;;;;26.60;16.42;;;;;;;17.52;69.53;98790.16;10397685;28;20053;-81
2022/09/15 01:03:02;;;;;;;29.00;18.27;;;;;;;17.51;69.45;98791.94;10395369;28;20439;-82
2022/09/15 01:08:15;;;;;;;21.08;14.55;;;;;;;17.37;69.12;98789.13;10395294;28;20045;-81
2022/09/15 01:13:17;;;;;;;24.63;16.08;;;;;;;17.23;69.25;98802.91;10392173;28;20052;-81
2022/09/15 01:18:40;;;;;;;23.27;16.00;;;;;;;17.14;69.04;98804.69;10397869;28;20126;-81
2022/09/15 01:24:00;;;;;;;29.55;19.63;;;;;;;17.06;69.40;98812.59;10395711;28;20053;-81
2022/09/15 01:29:21;;;;;;;19.35;14.00;;;;;;;16.81;68.84;98805.59;10391916;28;20049;-81
2022/09/15 01:34:27;;;;;;;16.30;13.23;;;;;;;16.85;69.06;98806.91;10394419;28;20064;-82
2022/09/15 01:39:36;;;;;;;17.75;14.00;;;;;;;16.89;68.44;98808.25;10392473;28;20053;-81
2022/09/15 01:44:53;;;;;;;21.30;15.73;;;;;;;16.93;69.18;98820.16;10396333;28;20057;-82
2022/09/15 01:50:08;;;;;;;20.45;16.10;;;;;;;17.03;68.09;98815.59;10393316;28;20056;-81
2022/09/15 01:55:24;;;;;;;20.70;16.15;;;;;;;16.91;67.92;98806.28;10394862;28;20053;-81
2022/09/15 02:00:25;;;;;;;27.88;19.55;;;;;;;16.96;68.15;98815.38;10393178;28;20057;-81
2022/09/15 02:05:40;;;;;;;32.00;18.33;;;;;;;16.59;68.14;98824.59;10398900;28;20507;-82
2022/09/15 02:10:50;;;;;;;27.92;18.63;;;;;;;16.64;68.18;98817.03;10398304;28;20060;-82
2022/09/15 02:15:57;;;;;;;23.85;17.15;;;;;;;16.62;68.42;98827.75;10400024;28;20046;-81
2022/09/15 02:21:09;;;;;;;35.10;20.45;;;;;;;16.62;68.07;98826.91;10397162;28;20049;-82
2022/09/15 02:26:18;;;;;;;28.85;17.90;;;;;;;16.50;68.16;98836.94;10406142;28;20045;-81
2022/09/15 02:31:23;;;;;;;25.48;16.75;;;;;;;16.50;68.47;98831.66;10396323;28;20060;-82
2022/09/15 02:36:28;;;;;;;43.30;23.98;;;;;;;16.52;68.09;98834.13;10397867;28;20046;-81
2022/09/15 02:41:30;;;;;;;38.28;23.20;;;;;;;16.34;68.54;98831.50;10405857;28;20060;-81
2022/09/15 02:46:32;;;;;;;31.42;21.50;;;;;;;16.37;68.04;98823.28;10396751;28;20064;-86
2022/09/15 02:51:34;;;;;;;35.50;22.80;;;;;;;16.39;68.04;98831.03;10400724;28;20057;-86
2022/09/15 02:56:36;;;;;;;35.40;22.40;;;;;;;16.46;68.09;98824.19;10400026;28;20045;-85
2022/09/15 03:01:39;;;;;;;35.00;23.35;;;;;;;16.46;68.04;98832.09;10398065;28;20067;-86
2022/09/15 03:06:42;;;;;;;32.10;22.13;;;;;;;16.41;67.68;98829.88;10397614;28;20045;-86
2022/09/15 03:11:44;;;;;;;31.02;21.67;;;;;;;16.43;67.91;98842.91;10394669;28;20396;-87
2022/09/15 03:16:46;;;;;;;25.17;17.95;;;;;;;16.30;67.55;98851.28;10389140;28;20050;-86
2022/09/15 03:21:48;;;;;;;27.48;18.48;;;;;;;16.26;67.51;98863.13;10386870;28;20934;-86
2022/09/15 03:26:49;;;;;;;26.10;18.95;;;;;;;16.21;67.58;98865.38;10392960;28;20050;-85
2022/09/15 03:31:51;;;;;;;22.50;15.32;;;;;;;16.19;67.07;98867.31;10393791;28;20423;-86
2022/09/15 03:36:53;;;;;;;22.77;15.02;;;;;;;16.24;66.93;98873.78;10394160;28;20612;-86
2022/09/15 03:41:54;;;;;;;20.08;13.02;;;;;;;16.24;66.78;98884.34;10394576;28;20045;-86
2022/09/15 03:46:57;;;;;;;19.63;14.18;;;;;;;16.24;66.61;98891.47;10394454;28;20064;-86
2022/09/15 03:51:58;;;;;;;27.25;15.05;;;;;;;16.26;66.32;98899.22;10403613;28;20061;-86
2022/09/15 03:57:00;;;;;;;21.38;14.70;;;;;;;16.16;66.67;98894.84;10394371;28;20266;-87
2022/09/15 04:02:02;;;;;;;21.15;13.90;;;;;;;16.12;66.64;98896.13;10391072;28;20057;-85
2022/09/15 04:07:04;;;;;;;26.08;14.70;;;;;;;16.16;66.69;98904.59;10397630;28;20056;-86
2022/09/15 04:12:05;;;;;;;23.27;15.00;;;;;;;16.20;66.83;98908.56;10400589;28;20050;-86
2022/09/15 04:17:09;;;;;;;24.30;13.95;;;;;;;16.16;66.96;98905.38;10399237;28;20046;-87
2022/09/15 04:22:11;;;;;;;18.63;12.43;;;;;;;16.11;66.46;98910.31;10401853;28;20058;-86
2022/09/15 04:27:18;;;;;;;17.20;11.38;;;;;;;16.07;66.21;98908.94;10403073;28;20049;-86
2022/09/15 04:32:20;;;;;;;15.32;9.82;;;;;;;15.97;65.56;98910.84;10402481;28;20441;-86
2022/09/15 04:37:22;;;;;;;17.15;10.30;;;;;;;15.96;66.14;98914.44;10400650;28;20041;-86
2022/09/15 04:42:24;;;;;;;18.02;10.50;;;;;;;15.92;65.88;98925.41;10399911;28;20079;-85
2022/09/15 04:47:26;;;;;;;16.27;9.63;;;;;;;15.88;65.73;98932.81;10401078;28;20065;-86
2022/09/15 04:52:28;;;;;;;16.35;9.40;;;;;;;15.79;65.89;98931.09;10400731;28;20061;-86
2022/09/15 04:57:29;;;;;;;17.15;10.07;;;;;;;15.71;65.98;98933.63;10400654;28;20046;-87
2022/09/15 05:02:32;;;;;;;20.05;10.70;;;;;;;15.63;66.48;98941.44;10401085;28;20534;-87
2022/09/15 05:07:33;;;;;;;16.80;11.18;;;;;;;15.54;66.02;98934.41;10401531;28;20104;-88
2022/09/15 05:12:35;;;;;;;17.73;11.38;;;;;;;15.50;66.04;98938.31;10401619;28;20057;-87
2022/09/15 05:17:37;;;;;;;19.83;11.77;;;;;;;15.46;66.30;98942.19;10400382;28;20050;-88
2022/09/15 05:22:38;;;;;;;20.40;13.07;;;;;;;15.34;66.64;98946.00;10399208;28;20057;-87
2022/09/15 05:27:42;;;;;;;20.60;12.70;;;;;;;15.32;66.15;98951.41;10402827;28;20080;-88
2022/09/15 05:32:44;;;;;;;22.27;14.50;;;;;;;15.24;66.35;98959.22;10400776;28;20057;-88
2022/09/15 05:37:45;;;;;;;26.05;14.68;;;;;;;15.17;66.60;98973.06;10401304;28;20483;-87
2022/09/15 05:42:47;;;;;;;23.63;16.08;;;;;;;15.16;66.57;98971.44;10401411;28;20049;-87
2022/09/15 05:47:49;;;;;;;23.85;15.07;;;;;;;15.12;66.59;98972.69;10400111;28;20439;-87
2022/09/15 05:52:51;;;;;;;23.02;15.77;;;;;;;15.25;66.18;98975.81;10398873;28;20056;-87
2022/09/15 05:57:53;;;;;;;23.35;15.65;;;;;;;15.42;65.16;98977.72;10399153;28;20055;-87
2022/09/15 06:02:54;;;;;;;26.35;16.52;;;;;;;15.37;65.75;98974.66;10400607;28;20928;-87
2022/09/15 06:07:56;;;;;;;26.25;16.88;;;;;;;15.49;65.21;98988.50;10399552;28;20048;-88
2022/09/15 06:12:58;;;;;;;22.98;16.65;;;;;;;15.53;64.87;98992.53;10397612;28;20128;-87
2022/09/15 06:17:59;;;;;;;29.02;18.42;;;;;;;15.65;64.93;98996.66;10397736;28;20042;-87
2022/09/15 06:23:01;;;;;;;21.98;16.42;;;;;;;15.85;63.91;98991.13;10387581;28;20053;-88
2022/09/15 06:28:03;;;;;;;26.30;17.05;;;;;;;16.06;63.16;98999.59;10397954;28;20925;-88
2022/09/15 06:33:04;;;;;;;27.50;18.58;;;;;;;16.13;63.11;98999.84;10396459;28;20498;-86
2022/09/15 06:38:07;;;;;;;23.65;17.38;;;;;;;16.26;62.36;99005.59;10396146;28;20049;-85
2022/09/15 06:43:08;;;;;;;28.13;16.90;;;;;;;16.46;61.79;99011.56;10393448;28;20053;-85
2022/09/15 06:48:10;;;;;;;25.83;16.42;;;;;;;16.58;61.40;99008.56;10395528;28;20060;-87
2022/09/15 06:53:28;;;;;;;25.25;17.27;;;;;;;16.55;62.31;99023.88;10390591;28;20053;-88
2022/09/15 06:58:32;;;;;;;27.48;17.88;;;;;;;16.52;61.57;99022.34;10395785;28;20269;-86
2022/09/15 07:03:35;;;;;;;25.45;18.08;;;;;;;16.65;61.10;99021.97;10396722;28;20111;-88
2022/09/15 07:08:38;;;;;;;33.15;20.95;;;;;;;16.87;60.38;99027.59;10396849;28;20076;-88
2022/09/15 07:13:40;;;;;;;29.58;22.25;;;;;;;16.86;60.33;99035.69;10398613;28;20437;-87
2022/09/15 07:18:42;;;;;;;35.58;22.85;;;;;;;16.88;59.46;99033.72;10397559;28;20060;-81
2022/09/15 07:23:44;;;;;;;27.90;21.17;;;;;;;17.33;58.40;99037.03;10395334;28;20046;-81
2022/09/15 07:28:49;;;;;;;33.95;22.38;;;;;;;17.47;57.94;99052.34;10401036;28;20137;-81
2022/09/15 07:33:52;;;;;;;34.67;24.77;;;;;;;17.25;57.87;99049.34;10400700;28;20495;-81
2022/09/15 07:38:54;;;;;;;32.25;23.23;;;;;;;17.29;58.16;99051.53;10394841;28;20061;-81
2022/09/15 07:43:57;;;;;;;31.35;22.75;;;;;;;17.30;57.77;99052.38;10400953;28;20057;-81
2022/09/15 07:49:01;;;;;;;32.22;22.70;;;;;;;17.65;56.87;99047.81;10402713;28;20423;-81
2022/09/15 07:54:03;;;;;;;29.33;21.20;;;;;;;17.85;56.54;99059.00;10402341;28;20061;-81
2022/09/15 07:59:06;;;;;;;29.33;20.88;;;;;;;17.92;56.37;99059.16;10399866;28;20056;-82
2022/09/15 08:04:08;;;;;;;31.52;21.42;;;;;;;18.11;56.35;99078.28;10401149;28;20470;-82
2022/09/15 08:09:13;;;;;;;29.45;20.33;;;;;;;18.42;55.29;99075.91;10400034;28;20414;-82
2022/09/15 08:14:15;;;;;;;25.95;19.15;;;;;;;18.70;54.65;99077.28;10398564;28;20075;-82
2022/09/15 08:19:17;;;;;;;25.63;18.77;;;;;;;18.71;54.09;99078.94;10401241;28;20046;-82
2022/09/15 08:24:18;;;;;;;29.50;20.00;;;;;;;18.38;54.97;99082.53;10401292;28;20055;-82
2022/09/15 08:29:20;;;;;;;28.42;19.90;;;;;;;18.63;53.39;99079.75;10401124;28;20068;-81
2022/09/15 08:34:22;;;;;;;26.20;18.23;;;;;;;18.92;52.72;99084.59;10401261;28;20140;-82
2022/09/15 08:39:24;;;;;;;22.90;17.23;;;;;;;19.46;51.70;99088.41;10401285;28;20053;-81
2022/09/15 08:44:55;;;;;;;25.42;19.08;;;;;;;19.79;50.93;99095.28;10400706;28;20056;-82
2022/09/15 08:50:37;;;;;;;26.95;18.70;;;;;;;19.57;50.83;99088.06;10399413;28;20157;-82
2022/09/15 08:55:52;;;;;;;23.83;15.93;;;;;;;19.51;51.07;99095.84;10394412;28;20049;-82
2022/09/15 09:01:09;;;;;;;22.05;17.20;;;;;;;19.17;51.79;99088.94;10393432;28;20503;-82
2022/09/15 09:06:42;;;;;;;22.60;15.30;;;;;;;19.55;51.30;99099.81;10398955;28;20057;-82
2022/09/15 09:12:16;;;;;;;21.55;13.75;;;;;;;19.52;51.07;99100.19;10398125;28;20057;-82
2022/09/15 09:17:38;;;;;;;17.70;12.77;;;;;;;19.48;50.42;99097.84;10381319;28;20098;-82
2022/09/15 09:22:43;;;;;;;21.13;13.35;;;;;;;19.40;51.45;99099.69;10399803;28;20049;-83
2022/09/15 09:27:46;;;;;;;22.63;13.45;;;;;;;19.23;52.29;99098.06;10398592;28;20057;-82
2022/09/15 09:33:19;;;;;;;18.63;13.77;;;;;;;19.54;50.85;99087.56;10395234;28;20059;-83
2022/09/15 09:38:34;;;;;;;18.08;12.57;;;;;;;19.84;50.85;99103.63;10388172;28;20057;-82
2022/09/15 09:43:35;;;;;;;17.83;12.93;;;;;;;19.70;50.55;99101.63;10397739;28;20081;-83
2022/09/15 09:48:38;;;;;;;17.25;12.48;;;;;;;19.76;50.39;99100.13;10393999;28;20050;-83
2022/09/15 09:53:41;;;;;;;18.17;12.35;;;;;;;19.95;50.41;99095.28;10396949;28;20541;-84
2022/09/15 09:58:43;;;;;;;19.60;12.90;;;;;;;20.04;49.39;99101.38;10394066;28;20140;-84
2022/09/15 10:03:46;;;;;;;22.95;13.10;;;;;;;19.93;49.42;99107.09;10394204;28;20053;-83
2022/09/15 10:09:02;;;;;;;17.20;13.20;;;;;;;19.84;49.38;99094.81;10396706;28;20045;-84
2022/09/15 10:14:04;;;;;;;18.17;13.48;;;;;;;19.87;50.50;99092.66;10395775;28;20054;-84
2022/09/15 10:19:13;;;;;;;18.55;12.60;;;;;;;20.41;49.05;99096.25;10403735;28;20041;-83
2022/09/15 10:24:33;;;;;;;16.67;11.60;;;;;;;20.77;47.17;99092.06;10387865;28;20203;-83
2022/09/15 10:29:38;;;;;;;14.48;10.77;;;;;;;21.00;46.43;99092.91;10396182;28;20056;-84
2022/09/15 10:34:40;;;;;;;15.40;10.25;;;;;;;21.09;47.04;99085.66;10400676;28;20431;-84
2022/09/15 10:39:54;;;;;;;14.23;9.15;;;;;;;20.84;46.07;99090.38;10398057;28;20053;-83
2022/09/15 10:45:13;;;;;;;13.77;8.73;;;;;;;20.55;47.37;99087.53;10395720;28;20538;-83
2022/09/15 10:50:43;;;;;;;10.07;7.13;;;;;;;20.52;46.58;99098.50;10398037;28;20503;-83
2022/09/15 10:55:54;;;;;;;9.82;6.88;;;;;;;20.92;46.58;99106.25;10401947;28;20053;-84
2022/09/15 11:01:31;;;;;;;10.52;6.75;;;;;;;20.59;45.87;99094.19;10395370;28;20052;-84
2022/09/15 11:06:51;;;;;;;9.65;5.45;;;;;;;20.42;45.59;99105.06;10393648;28;20166;-84
2022/09/15 11:12:05;;;;;;;9.55;5.47;;;;;;;20.32;44.94;99107.91;10394421;28;20400;-81
2022/09/15 11:17:10;;;;;;;11.10;6.38;;;;;;;20.16;44.29;99114.13;10393847;28;20415;-84
2022/09/15 11:22:21;;;;;;;14.50;7.10;;;;;;;20.10;46.19;99119.28;10388536;28;20602;-84
2022/09/15 11:27:26;;;;;;;11.05;6.85;;;;;;;20.02;46.20;99127.28;10400677;28;20392;-84
2022/09/15 11:33:12;;;;;;;11.27;6.75;;;;;;;20.20;46.17;99120.75;10392725;28;20080;-84
2022/09/15 11:38:41;;;;;;;8.10;5.38;;;;;;;20.11;46.39;99127.06;10392669;28;20053;-84
2022/09/15 11:44:25;;;;;;;8.40;5.55;;;;;;;20.16;44.85;99126.56;10395340;28;20115;-84
2022/09/15 11:49:45;;;;;;;9.57;5.10;;;;;;;20.46;44.23;99125.75;10395218;28;20100;-84
2022/09/15 11:55:19;;;;;;;10.27;4.70;;;;;;;20.62;44.71;99136.31;10395471;28;20055;-84
2022/09/15 12:00:21;;;;;;;8.30;4.45;;;;;;;20.80;44.75;99128.94;10393866;28;20530;-83
2022/09/15 12:05:38;;;;;;;7.30;4.15;;;;;;;20.96;43.77;99122.69;10393540;28;20127;-84
2022/09/15 12:10:47;;;;;;;7.85;3.90;;;;;;;21.02;44.10;99129.94;10403771;28;20824;-84
2022/09/15 12:15:51;;;;;;;6.30;3.93;;;;;;;20.98;43.65;99134.78;10402782;28;20140;-84
2022/09/15 12:21:04;;;;;;;6.15;3.67;;;;;;;21.10;42.46;99132.53;10390073;28;20045;-85
2022/09/15 12:26:19;;;;;;;9.00;3.80;;;;;;;21.19;42.35;99133.31;10387105;28;20061;-83
2022/09/15 12:31:46;;;;;;;6.60;4.00;;;;;;;21.36;42.55;99127.69;10399255;28;20053;-83
2022/09/15 12:36:52;;;;;;;8.15;4.18;;;;;;;21.35;42.97;99138.53;10400248;28;20469;-83
2022/09/15 12:42:02;;;;;;;6.60;3.88;;;;;;;21.39;43.65;99126.53;10400939;28;20068;-83
2022/09/15 12:47:16;;;;;;;6.78;4.05;;;;;;;21.40;42.77;99134.31;10402960;28;20137;-83
2022/09/15 12:52:22;;;;;;;10.18;3.70;;;;;;;21.39;42.31;99139.81;10400564;28;20614;-83
2022/09/15 12:57:35;;;;;;;6.85;3.70;;;;;;;21.51;42.67;99133.06;10407725;28;20059;-83
2022/09/15 13:02:46;;;;;;;7.63;3.80;;;;;;;21.73;42.04;99133.00;10399871;28;20903;-83
2022/09/15 13:08:28;;;;;;;6.60;3.88;;;;;;;21.63;40.96;99135.09;10400153;28;20057;-83
2022/09/15 13:14:02;;;;;;;8.43;3.97;;;;;;;21.41;40.68;99137.81;10388951;28;20136;-86
2022/09/15 13:19:25;;;;;;;7.18;3.10;;;;;;;21.27;40.94;99143.88;10397141;28;20139;-84
2022/09/15 13:24:49;;;;;;;7.55;3.30;;;;;;;20.99;42.08;99141.75;10397403;28;21014;-83
2022/09/15 13:30:08;;;;;;;5.47;3.10;;;;;;;20.84;42.30;99150.66;10392894;28;20053;-86
2022/09/15 13:35:42;;;;;;;8.95;3.58;;;;;;;21.01;42.00;99142.41;10390908;28;20102;-84
2022/09/15 13:40:53;;;;;;;9.15;3.13;;;;;;;21.15;41.64;99137.31;10382896;28;20049;-84
2022/09/15 13:46:27;;;;;;;5.45;2.47;;;;;;;21.20;40.29;99124.31;10383449;28;20064;-85
2022/09/15 13:51:31;;;;;;;7.82;3.03;;;;;;;21.46;41.29;99119.44;10393578;28;20119;-84
2022/09/15 13:56:40;;;;;;;6.40;2.90;;;;;;;21.67;40.51;99106.28;10401393;28;20396;-84
2022/09/15 14:01:43;;;;;;;8.70;3.10;;;;;;;21.73;41.21;99106.41;10381730;28;20071;-84
2022/09/15 14:06:49;;;;;;;4.78;2.67;;;;;;;21.66;41.35;99109.97;10391662;28;20885;-84
2022/09/15 14:11:55;;;;;;;5.60;2.65;;;;;;;21.50;40.09;99104.78;10386723;28;20418;-84
2022/09/15 14:16:56;;;;;;;5.32;2.67;;;;;;;21.27;41.40;99102.16;10396250;28;20152;-83
2022/09/15 14:22:01;;;;;;;6.28;2.72;;;;;;;21.32;40.93;99101.63;10387944;28;20063;-84
2022/09/15 14:27:08;;;;;;;5.70;2.58;;;;;;;21.06;40.39;99105.50;10388086;28;20057;-85
2022/09/15 14:32:15;;;;;;;4.63;2.40;;;;;;;20.83;41.75;99117.09;10391649;28;20057;-84
2022/09/15 14:37:28;;;;;;;5.78;2.40;;;;;;;20.86;41.29;99108.78;10385489;28;20572;-85
2022/09/15 14:42:35;;;;;;;5.85;2.22;;;;;;;21.21;41.27;99110.84;10387335;28;20569;-85
2022/09/15 14:47:42;;;;;;;5.03;2.15;;;;;;;21.20;39.92;99105.69;10395204;28;20054;-84
2022/09/15 14:52:51;;;;;;;4.35;2.00;;;;;;;21.12;39.45;99111.06;10381431;28;20054;-85
2022/09/15 14:57:56;;;;;;;;;;;;;;;20.66;41.16;99105.75;10378443;28;20049;-85
2022/09/15 15:03:29;;;;;;;6.40;2.10;;;;;;;21.14;40.18;99101.09;10376965;28;19925;-86
2022/09/15 15:08:37;;;;;;;6.07;2.20;;;;;;;21.25;40.70;99098.03;10371875;28;20453;-85
2022/09/15 15:13:42;;;;;;;6.88;2.10;;;;;;;21.15;40.32;99095.59;10383919;28;20127;-85
2022/09/15 15:18:45;;;;;;;5.75;2.22;;;;;;;21.28;40.53;99100.31;10371144;28;20076;-85
2022/09/15 15:23:50;;;;;;;7.43;2.10;;;;;;;21.07;39.52;99116.94;10386690;28;20061;-85
2022/09/15 15:28:54;;;;;;;4.55;1.92;;;;;;;20.55;40.56;99108.78;10377594;28;20506;-86
2022/09/15 15:34:06;;;;;;;5.40;2.05;;;;;;;20.14;41.19;99113.47;10393717;28;20105;-86
2022/09/15 15:39:23;;;;;;;4.45;2.00;;;;;;;19.99;41.32;99109.84;10379348;28;20132;-86
2022/09/15 15:44:28;;;;;;;3.83;2.05;;;;;;;19.85;41.27;99123.00;10396706;28;20045;-87
2022/09/15 15:49:32;;;;;;;3.83;2.00;;;;;;;19.80;41.99;99126.16;10376367;28;20046;-86
2022/09/15 15:54:34;;;;;;;3.13;2.00;;;;;;;19.70;43.04;99127.34;10376761;28;20054;-86
2022/09/15 15:59:41;;;;;;;6.72;2.17;;;;;;;19.43;43.05;99132.00;10369687;28;20054;-86
2022/09/15 16:04:45;;;;;;;5.18;2.00;;;;;;;19.30;43.48;99134.31;10399125;28;20061;-86
2022/09/15 16:10:00;;;;;;;5.75;2.10;;;;;;;19.15;43.13;99128.03;10391617;28;20057;-86
2022/09/15 16:15:13;;;;;;;6.20;2.17;;;;;;;19.11;43.96;99131.19;10399676;28;20091;-86
2022/09/15 16:20:32;;;;;;;5.63;2.33;;;;;;;18.99;44.04;99130.63;10390559;28;20585;-86
2022/09/15 16:25:44;;;;;;;5.13;2.30;;;;;;;18.99;44.85;99138.56;10401587;28;20093;-87
2022/09/15 16:30:57;;;;;;;6.18;2.35;;;;;;;18.94;45.64;99135.59;10396441;28;20525;-88
2022/09/15 16:36:05;;;;;;;5.40;3.03;;;;;;;18.83;45.22;99137.75;10393943;28;20064;-87
2022/09/15 16:41:14;;;;;;;4.57;2.10;;;;;;;18.82;45.29;99139.56;10336958;28;20115;-85
2022/09/15 16:46:16;;;;;;;7.10;2.50;;;;;;;18.77;45.67;99146.34;10374929;28;20057;-86
2022/09/15 16:51:23;;;;;;;9.70;2.35;;;;;;;18.70;45.90;99143.50;10369898;28;20095;-86
2022/09/15 16:56:31;;;;;;;6.82;2.50;;;;;;;18.57;45.88;99154.56;10372440;28;20057;-85
2022/09/15 17:01:33;;;;;;;4.55;2.13;;;;;;;18.40;45.85;99152.03;10374569;28;20403;-85
2022/09/15 17:06:35;;;;;;;6.45;2.30;;;;;;;18.26;46.89;99155.28;10377200;28;20059;-85
2022/09/15 17:11:37;;;;;;;6.10;2.28;;;;;;;18.09;47.13;99170.22;10377945;28;20435;-86
2022/09/15 17:16:39;;;;;;;4.90;2.50;;;;;;;17.98;48.19;99182.88;10365401;28;20694;-84
2022/09/15 17:21:40;;;;;;;8.18;2.47;;;;;;;17.57;50.09;99202.91;10369428;28;21731;-85
2022/09/15 17:26:42;;;;;;;7.40;2.15;;;;;;;17.32;50.52;99211.63;10371759;28;20064;-85
2022/09/15 17:31:44;;;;;;;8.48;2.40;;;;;;;17.14;51.84;99218.72;10374113;28;20049;-85
2022/09/15 17:36:45;;;;;;;6.22;2.20;;;;;;;17.20;51.54;99207.53;10374717;28;20050;-84
2022/09/15 17:41:47;;;;;;;5.50;2.20;;;;;;;17.19;51.79;99205.88;10370939;28;20058;-84
2022/09/15 17:46:49;;;;;;;5.63;1.95;;;;;;;17.24;51.76;99207.06;10377564;28;20504;-85
2022/09/15 17:51:51;;;;;;;6.65;2.20;;;;;;;17.14;51.45;99206.31;10371270;28;20060;-85
2022/09/15 17:56:53;;;;;;;5.45;2.10;;;;;;;17.12;51.99;99205.63;10370877;28;20558;-85
2022/09/15 18:01:55;;;;;;;7.65;2.40;;;;;;;17.00;52.06;99204.19;10358473;28;20094;-85
2022/09/15 18:06:58;;;;;;;6.10;2.03;;;;;;;16.91;52.07;99213.84;10366719;28;20354;-84
2022/09/15 18:12:00;;;;;;;7.68;2.10;;;;;;;16.80;51.67;99213.22;10370746;28;20060;-86
2022/09/15 18:17:02;;;;;;;6.30;2.17;;;;;;;16.83;52.30;99212.94;10362595;28;20152;-85
2022/09/15 18:22:03;;;;;;;6.38;2.15;;;;;;;16.76;51.26;99223.25;10369589;28;20053;-85
2022/09/15 18:27:06;;;;;;;5.75;2.10;;;;;;;16.70;51.72;99220.38;10373367;28;20088;-84
2022/09/15 18:32:08;;;;;;;6.13;2.08;;;;;;;16.75;51.61;99228.69;10383574;28;20286;-85
2022/09/15 18:37:11;;;;;;;6.22;2.00;;;;;;;16.70;51.22;99236.22;10368146;28;20058;-85
2022/09/15 18:42:12;;;;;;;5.82;1.92;;;;;;;16.68;51.20;99246.09;10367299;28;20055;-84
2022/09/15 18:47:14;;;;;;;5.22;2.00;;;;;;;16.40;50.97;99250.50;10366451;28;20057;-85
2022/09/15 18:52:16;;;;;;;10.63;1.90;;;;;;;16.29;51.87;99263.00;10373989;28;20056;-85
2022/09/15 18:57:18;;;;;;;4.68;1.83;;;;;;;16.16;51.77;99253.59;10372020;28;20419;-84
2022/09/15 19:02:35;;;;;;;7.35;1.90;;;;;;;16.05;51.82;99263.50;10372963;28;20073;-84
2022/09/15 19:07:38;;;;;;;5.10;1.85;;;;;;;16.09;51.72;99267.53;10366420;28;20064;-84
2022/09/15 19:12:39;;;;;;;5.50;1.90;;;;;;;16.10;52.01;99264.72;10366723;28;20061;-84
2022/09/15 19:17:42;;;;;;;4.20;1.65;;;;;;;16.08;51.75;99265.88;10365352;28;20506;-85
2022/09/15 19:22:44;;;;;;;6.82;2.10;;;;;;;16.01;51.44;99276.16;10370719;28;20052;-84
2022/09/15 19:27:47;;;;;;;5.85;1.90;;;;;;;15.99;52.03;99267.56;10370561;28;20049;-86
2022/09/15 19:32:50;;;;;;;8.63;2.35;;;;;;;15.90;52.06;99260.47;10357138;28;20144;-85
2022/09/15 19:37:52;;;;;;;7.28;2.05;;;;;;;15.77;52.40;99262.59;10369203;28;20053;-86
2022/09/15 19:42:54;;;;;;;6.45;2.00;;;;;;;15.92;52.22;99268.22;10371599;28;20087;-85
2022/09/15 19:47:55;;;;;;;7.07;1.90;;;;;;;15.90;52.07;99272.81;10372272;28;20064;-85
2022/09/15 19:52:57;;;;;;;4.00;1.90;;;;;;;15.87;52.35;99279.22;10379484;28;20064;-85
2022/09/15 19:58:00;;;;;;;6.60;1.90;;;;;;;15.91;52.38;99280.63;10370934;28;20042;-84
2022/09/15 20:03:02;;;;;;;9.65;2.13;;;;;;;15.94;52.23;99274.19;10379602;28;20065;-85
2022/09/15 20:08:04;;;;;;;5.57;2.10;;;;;;;15.87;52.35;99281.88;10378774;28;20084;-85
2022/09/15 20:13:05;;;;;;;6.35;2.00;;;;;;;15.86;52.11;99274.91;10380157;28;20050;-85
2022/09/15 20:18:07;;;;;;;5.50;1.90;;;;;;;15.87;51.90;99273.97;10378110;28;20053;-85
2022/09/15 20:23:09;;;;;;;4.93;2.10;;;;;;;15.87;52.15;99279.22;10380927;28;20049;-85
2022/09/15 20:28:11;;;;;;;5.05;1.70;;;;;;;15.83;51.83;99283.13;10377085;28;20057;-85
2022/09/15 20:33:13;;;;;;;6.97;2.20;;;;;;;15.91;52.03;99280.63;10380370;28;20072;-85
2022/09/15 20:38:15;;;;;;;7.32;1.85;;;;;;;15.93;51.67;99288.38;10379871;28;20052;-85
2022/09/15 20:43:16;;;;;;;7.65;2.20;;;;;;;15.87;51.83;99287.13;10378174;28;20423;-85
2022/09/15 20:48:18;;;;;;;7.50;1.75;;;;;;;15.89;51.77;99293.09;10377128;28;20060;-85
2022/09/15 20:53:20;;;;;;;5.57;1.95;;;;;;;15.82;51.44;99292.00;10377220;28;20511;-85
2022/09/15 20:58:21;;;;;;;7.18;2.20;;;;;;;15.82;51.82;99292.00;10376459;28;20049;-85
2022/09/15 21:03:23;;;;;;;6.57;2.13;;;;;;;15.79;51.87;99287.00;10379260;28;20072;-84
2022/09/15 21:08:26;;;;;;;6.18;1.83;;;;;;;15.84;51.99;99295.31;10372687;28;20060;-85
2022/09/15 21:13:29;;;;;;;5.97;1.90;;;;;;;15.78;52.08;99301.16;10376871;28;20049;-86
2022/09/15 21:18:33;;;;;;;6.80;2.28;;;;;;;15.82;52.24;99301.69;10373027;28;20045;-86
2022/09/15 21:23:41;;;;;;;6.57;1.95;;;;;;;15.77;52.42;99298.66;10393647;28;20060;-84
2022/09/15 21:28:43;;;;;;;9.25;1.88;;;;;;;15.71;51.55;99307.13;10377045;28;20050;-85
2022/09/15 21:33:46;;;;;;;6.78;2.35;;;;;;;15.64;51.72;99312.13;10378327;28;20528;-85
2022/09/15 21:38:50;;;;;;;8.45;2.20;;;;;;;15.64;51.62;99309.47;10379908;28;20327;-85
2022/09/15 21:43:53;;;;;;;9.82;1.98;;;;;;;15.61;51.89;99322.13;10376636;28;20408;-85
2022/09/15 21:48:57;;;;;;;10.68;2.03;;;;;;;15.62;51.58;99327.25;10377243;28;20048;-82
2022/09/15 21:53:59;;;;;;;8.07;1.90;;;;;;;15.61;51.42;99325.59;10376888;28;20507;-84
2022/09/15 21:59:02;;;;;;;8.75;1.90;;;;;;;15.61;51.86;99332.66;10409210;28;20056;-84
2022/09/15 22:04:05;;;;;;;4.43;1.88;;;;;;;15.60;51.94;99330.97;10374113;28;20066;-84
2022/09/15 22:09:11;;;;;;;5.13;1.70;;;;;;;15.55;52.03;99331.38;10376534;28;20514;-85
2022/09/15 22:14:13;;;;;;;7.38;2.00;;;;;;;15.49;52.01;99333.72;10376191;28;20810;-85
2022/09/15 22:19:15;;;;;;;5.15;1.90;;;;;;;15.35;52.39;99332.28;10375907;28;20049;-84
2022/09/15 22:24:17;;;;;;;6.30;1.75;;;;;;;15.17;52.18;99329.50;10390402;28;20443;-84
2022/09/15 22:29:47;;;;;;;5.72;1.70;;;;;;;15.11;52.35;99337.94;10374953;28;20060;-84
2022/09/15 22:34:48;;;;;;;6.82;1.77;;;;;;;15.16;52.45;99345.44;10376285;28;20049;-84
2022/09/15 22:39:54;;;;;;;5.35;1.60;;;;;;;15.15;52.28;99339.34;10392595;28;20057;-84
2022/09/15 22:45:00;;;;;;;4.93;1.70;;;;;;;15.00;52.63;99345.94;10373150;28;20057;-84
2022/09/15 22:50:01;;;;;;;4.95;1.75;;;;;;;14.97;52.79;99346.22;10375214;28;20061;-84
2022/09/15 22:55:03;;;;;;;5.43;1.50;;;;;;;14.89;52.35;99346.03;10376035;28;20053;-85
2022/09/15 23:00:06;;;;;;;5.63;1.70;;;;;;;14.90;52.43;99347.69;10373727;28;20832;-85
2022/09/15 23:05:09;;;;;;;7.30;1.90;;;;;;;14.94;52.70;99356.19;10372693;28;20068;-85
2022/09/15 23:10:11;;;;;;;6.53;1.90;;;;;;;14.87;52.96;99355.03;10374189;28;20399;-84
2022/09/15 23:15:12;;;;;;;8.50;2.00;;;;;;;14.77;52.31;99346.25;10371552;28;20057;-84
2022/09/15 23:20:14;;;;;;;4.97;1.55;;;;;;;14.71;52.96;99349.44;10372774;28;20049;-84
2022/09/15 23:25:16;;;;;;;5.55;1.52;;;;;;;14.64;53.07;99341.22;10372706;28;20059;-84
2022/09/15 23:30:18;;;;;;;5.38;1.65;;;;;;;14.54;53.02;99348.22;10373246;28;20050;-84